createdAt,value
2019-01-21T00:01:16.359Z,27.57
2019-01-21T00:03:47.142Z,28.70
2019-01-21T00:21:29.860Z,27.93
2019-01-21T00:24:00.315Z,28.97
2019-01-21T00:26:30.699Z,27.80
2019-01-21T00:29:02.024Z,28.77
2019-01-21T00:31:32.517Z,27.77
2019-01-21T00:34:03.011Z,27.97
2019-01-21T00:36:33.506Z,28.43
2019-01-21T00:39:06.434Z,27.63
2019-01-21T00:41:37.302Z,28.80
2019-01-21T00:44:07.795Z,27.17
2019-01-21T00:46:38.187Z,26.87
2019-01-21T00:49:09.843Z,27.63
2019-01-21T00:51:40.360Z,25.77
2019-01-21T00:54:11.133Z,27.30
2019-01-21T00:56:42.043Z,27.67
2019-01-21T00:59:12.962Z,28.77
2019-01-21T01:01:43.719Z,27.03
2019-01-21T01:04:14.275Z,25.70
2019-01-21T01:06:45.104Z,26.33
2019-01-21T01:09:16.172Z,26.40
2019-01-21T01:11:46.766Z,25.70
2019-01-21T01:14:17.276Z,25.73
2019-01-21T01:16:47.798Z,26.33
2019-01-21T01:19:22.869Z,26.77
2019-01-21T01:21:53.507Z,24.20
2019-01-21T01:24:24.418Z,24.80
2019-01-21T01:26:54.905Z,26.50
2019-01-21T01:29:25.357Z,25.03
2019-01-21T01:31:55.817Z,24.63
2019-01-21T01:34:26.162Z,26.30
2019-01-21T01:36:56.539Z,25.10
2019-01-21T01:39:27.210Z,25.07
2019-01-21T01:41:57.703Z,25.13
2019-01-21T01:44:28.412Z,25.03
2019-01-21T01:46:58.878Z,25.43
2019-01-21T01:49:29.313Z,26.27
2019-01-21T01:51:59.789Z,23.43
2019-01-21T01:54:30.321Z,25.80
2019-01-21T01:57:00.794Z,23.63
2019-01-21T01:59:31.758Z,23.47
2019-01-21T02:02:02.243Z,24.37
2019-01-21T02:04:32.981Z,24.00
2019-01-21T02:07:03.502Z,23.40
2019-01-21T02:09:34.010Z,23.53
2019-01-21T02:12:04.787Z,24.10
2019-01-21T02:14:35.504Z,25.37
2019-01-21T02:17:06.023Z,25.03
2019-01-21T02:19:39.896Z,24.27
2019-01-21T02:22:12.282Z,25.83
2019-01-21T02:24:46.271Z,24.33
2019-01-21T02:28:21.318Z,24.23
2019-01-21T02:31:52.739Z,24.67
2019-01-21T02:34:58.755Z,22.80
2019-01-21T02:38:34.676Z,21.67
2019-01-21T02:42:08.073Z,22.23
2019-01-21T02:45:29.314Z,22.97
2019-01-21T02:48:38.751Z,23.43
2019-01-21T02:52:03.821Z,22.73
2019-01-21T02:54:56.945Z,24.30
2019-01-21T02:58:36.434Z,21.37
2019-01-21T03:02:10.813Z,22.90
2019-01-21T03:05:53.364Z,21.67
2019-01-21T03:09:15.395Z,20.07
2019-01-21T03:12:21.698Z,21.33
2019-01-21T03:15:51.396Z,23.00
2019-01-21T03:19:32.321Z,23.47
2019-01-21T03:23:09.176Z,22.47
2019-01-21T03:26:34.960Z,22.53
2019-01-21T03:30:04.689Z,21.70
2019-01-21T03:33:40.390Z,21.80
2019-01-21T03:36:52.318Z,20.67
2019-01-21T03:40:03.449Z,19.83
2019-01-21T03:42:54.698Z,19.73
2019-01-21T03:46:07.817Z,20.47
2019-01-21T03:48:51.222Z,17.97
2019-01-21T03:52:19.240Z,18.93
2019-01-21T03:54:56.421Z,17.87
2019-01-21T03:58:12.782Z,17.87
2019-01-21T04:01:38.718Z,18.17
2019-01-21T04:04:57.057Z,17.17
2019-01-21T04:08:30.613Z,17.70
2019-01-21T04:11:41.329Z,17.30
2019-01-21T04:14:56.572Z,17.60
2019-01-21T04:18:16.196Z,17.47
2019-01-21T04:21:49.292Z,15.20
2019-01-21T04:25:09.942Z,15.77
2019-01-21T04:28:42.554Z,17.10
2019-01-21T04:31:59.689Z,17.07
2019-01-21T04:34:52.357Z,15.07
2019-01-21T04:38:20.091Z,15.27
2019-01-21T04:42:05.464Z,15.50
2019-01-21T04:45:03.390Z,14.57
2019-01-21T04:48:32.923Z,16.20
2019-01-21T04:51:25.081Z,14.57
2019-01-21T04:55:08.822Z,15.07
2019-01-21T04:57:58.654Z,14.20
2019-01-21T05:01:31.455Z,14.97
2019-01-21T05:04:45.703Z,14.37
2019-01-21T05:08:02.398Z,12.93
2019-01-21T05:11:05.192Z,13.87
2019-01-21T05:14:30.596Z,12.47
2019-01-21T05:18:05.363Z,12.03
2019-01-21T05:21:34.619Z,14.03
2019-01-21T05:25:13.892Z,12.57
2019-01-21T05:28:29.079Z,13.80
2019-01-21T05:32:04.301Z,15.93
2019-01-21T05:35:34.016Z,14.33
2019-01-21T05:38:22.870Z,14.57
2019-01-21T05:42:06.117Z,15.57
2019-01-21T05:45:12.691Z,16.27
2019-01-21T05:48:49.022Z,16.87
2019-01-21T05:52:20.086Z,17.20
2019-01-21T05:55:48.971Z,17.53
2019-01-21T05:59:28.784Z,16.17
2019-01-21T06:03:02.247Z,16.57
2019-01-21T06:06:15.793Z,17.43
2019-01-21T06:10:01.749Z,17.10
2019-01-21T06:13:10.507Z,16.13
2019-01-21T06:16:15.591Z,17.63
2019-01-21T06:19:29.971Z,17.13
2019-01-21T06:23:02.609Z,16.77
2019-01-21T06:26:31.597Z,17.57
2019-01-21T06:29:23.214Z,18.03
2019-01-21T06:32:35.842Z,17.27
2019-01-21T06:36:13.398Z,14.97
2019-01-21T06:39:27.682Z,14.53
2019-01-21T06:42:38.981Z,14.73
2019-01-21T06:46:02.266Z,14.77
2019-01-21T06:49:25.624Z,14.90
2019-01-21T06:52:51.144Z,15.33
2019-01-21T06:56:04.645Z,13.90
2019-01-21T06:59:31.073Z,13.33
2019-01-21T07:02:48.531Z,14.50
2019-01-21T07:06:00.510Z,15.30
2019-01-21T07:09:22.962Z,15.50
2019-01-21T07:12:49.567Z,14.37
2019-01-21T07:15:54.849Z,15.70
2019-01-21T07:19:25.992Z,14.27
2019-01-21T07:22:40.247Z,14.77
2019-01-21T07:25:58.303Z,15.23
2019-01-21T07:29:27.222Z,15.07
2019-01-21T07:33:07.271Z,15.63
2019-01-21T07:36:54.908Z,15.90
2019-01-21T07:39:45.457Z,16.53
2019-01-21T07:43:33.028Z,17.43
2019-01-21T07:46:40.189Z,17.00
2019-01-21T07:49:49.216Z,16.03
2019-01-21T07:53:17.959Z,15.87
2019-01-21T07:56:51.324Z,14.37
2019-01-21T08:00:10.694Z,14.27
2019-01-21T08:04:06.267Z,15.77
2019-01-21T08:07:35.091Z,17.37
2019-01-21T08:10:37.606Z,18.20
2019-01-21T08:14:07.746Z,20.30
2019-01-21T08:17:34.676Z,21.47
2019-01-21T08:20:21.872Z,22.30
2019-01-21T08:23:39.398Z,20.90
2019-01-21T08:26:57.030Z,18.33
2019-01-21T08:30:17.833Z,20.07
2019-01-21T08:33:42.984Z,18.57
2019-01-21T08:36:43.464Z,17.80
2019-01-21T08:40:13.318Z,18.53
2019-01-21T08:43:37.079Z,20.53
2019-01-21T08:46:56.266Z,22.80
2019-01-21T08:50:18.390Z,21.10
2019-01-21T08:53:57.642Z,20.53
2019-01-21T08:57:15.462Z,17.90
2019-01-21T09:00:20.050Z,21.03
2019-01-21T09:03:28.508Z,21.17
2019-01-21T09:06:39.322Z,19.83
2019-01-21T09:09:36.108Z,20.80
2019-01-21T09:13:08.200Z,20.73
2019-01-21T09:16:16.352Z,20.40
2019-01-21T09:19:37.199Z,21.57
2019-01-21T09:22:46.677Z,13.80
2019-01-21T09:26:18.535Z,13.03
2019-01-21T09:29:58.625Z,12.77
2019-01-21T09:33:26.352Z,13.70
2019-01-21T09:37:05.866Z,12.37
2019-01-21T09:40:40.371Z,13.20
2019-01-21T09:44:12.610Z,14.50
2019-01-21T09:46:55.581Z,14.37
2019-01-21T09:49:23.611Z,14.87
2019-01-21T09:52:18.589Z,15.50
2019-01-21T09:54:50.367Z,14.63
2019-01-21T09:57:27.976Z,14.50
2019-01-21T10:00:01.887Z,14.07
2019-01-21T10:02:42.341Z,15.37
2019-01-21T10:05:15.480Z,15.43
2019-01-21T10:08:08.030Z,15.27
2019-01-21T10:11:50.056Z,14.23
2019-01-21T10:15:30.067Z,13.90
2019-01-21T10:18:21.362Z,13.57
2019-01-21T10:22:04.088Z,13.40
2019-01-21T10:25:10.831Z,12.60
2019-01-21T10:28:27.459Z,13.63
2019-01-21T10:31:39.428Z,14.77
2019-01-21T10:34:48.219Z,13.73
2019-01-21T10:38:13.781Z,13.87
2019-01-21T10:41:09.568Z,12.57
2019-01-21T10:44:19.443Z,13.87
2019-01-21T10:47:22.272Z,14.23
2019-01-21T10:50:19.974Z,13.03
2019-01-21T10:53:55.266Z,14.67
2019-01-21T10:57:15.745Z,13.57
2019-01-21T11:00:28.238Z,14.53
2019-01-21T11:03:49.437Z,12.87
2019-01-21T11:07:09.212Z,14.90
2019-01-21T11:10:19.598Z,14.57
2019-01-21T11:13:31.290Z,14.10
2019-01-21T11:16:22.784Z,15.60
2019-01-21T11:19:48.730Z,15.97
2019-01-21T11:23:00.667Z,15.33
2019-01-21T11:26:47.005Z,16.57
2019-01-21T11:29:39.179Z,17.10
2019-01-21T11:33:22.916Z,16.10
2019-01-21T11:36:51.979Z,17.00
2019-01-21T11:40:31.240Z,18.20
2019-01-21T11:43:56.732Z,17.43
2019-01-21T11:47:03.663Z,18.63
2019-01-21T11:50:02.129Z,19.47
2019-01-21T11:53:30.098Z,17.70
2019-01-21T11:56:25.662Z,19.30
2019-01-21T11:59:29.296Z,18.03
2019-01-21T12:02:44.378Z,19.20
2019-01-21T12:06:03.714Z,18.30
2019-01-21T12:09:38.125Z,19.10
2019-01-21T12:12:43.240Z,17.70
2019-01-21T12:16:09.456Z,18.30
2019-01-21T12:19:33.453Z,18.30
2019-01-21T12:22:53.848Z,18.53
2019-01-21T12:25:58.874Z,18.20
2019-01-21T12:29:09.869Z,19.27
2019-01-21T12:32:03.413Z,18.73
2019-01-21T12:34:54.964Z,18.53
2019-01-21T12:38:05.945Z,19.17
2019-01-21T12:41:24.718Z,17.03
2019-01-21T12:44:22.409Z,17.77
2019-01-21T12:47:16.063Z,18.23
2019-01-21T12:50:48.458Z,17.00
2019-01-21T12:54:13.262Z,18.07
2019-01-21T12:57:44.481Z,19.00
2019-01-21T13:01:15.073Z,17.47
2019-01-21T13:04:09.094Z,18.47
2019-01-21T13:07:16.031Z,18.17
2019-01-21T13:10:31.896Z,17.40
2019-01-21T13:14:08.693Z,17.13
2019-01-21T13:16:56.151Z,18.23
2019-01-21T13:20:30.919Z,18.10
2019-01-21T13:23:29.601Z,17.90
2019-01-21T13:26:43.103Z,19.37
2019-01-21T13:29:50.051Z,17.60
2019-01-21T13:32:52.613Z,17.90
2019-01-21T13:36:26.267Z,18.37
2019-01-21T13:39:50.385Z,17.67
2019-01-21T13:42:46.297Z,17.77
2019-01-21T13:46:37.761Z,17.53
2019-01-21T13:49:38.655Z,18.00
2019-01-21T13:52:45.011Z,18.23
2019-01-21T13:55:49.864Z,18.17
2019-01-21T13:59:32.110Z,17.77
2019-01-21T14:02:25.031Z,17.00
2019-01-21T14:05:42.405Z,18.10
2019-01-21T14:08:56.920Z,16.70
2019-01-21T14:12:16.010Z,16.87
2019-01-21T14:15:45.247Z,16.60
2019-01-21T14:19:30.027Z,16.97
2019-01-21T14:22:45.259Z,16.63
2019-01-21T14:26:19.196Z,16.10
2019-01-21T14:29:49.840Z,17.53
2019-01-21T14:32:47.580Z,17.50
2019-01-21T14:36:06.153Z,19.13
2019-01-21T14:39:48.008Z,17.27
2019-01-21T14:42:57.176Z,16.67
2019-01-21T14:46:31.375Z,17.23
2019-01-21T14:49:34.889Z,17.50
2019-01-21T14:52:57.708Z,17.23
2019-01-21T14:55:48.512Z,17.43
2019-01-21T14:59:43.896Z,19.23
2019-01-21T15:02:41.925Z,17.57
2019-01-21T15:06:34.509Z,18.23
2019-01-21T15:09:59.078Z,18.00
2019-01-21T15:13:07.294Z,17.43
2019-01-21T15:16:30.600Z,16.90
2019-01-21T15:19:34.983Z,17.60
2019-01-21T15:23:06.348Z,17.43
2019-01-21T15:26:03.598Z,17.70
2019-01-21T15:29:58.512Z,18.47
2019-01-21T15:33:36.093Z,17.80
2019-01-21T15:36:29.494Z,18.50
2019-01-21T15:39:36.504Z,18.80
2019-01-21T15:42:40.785Z,18.67
2019-01-21T15:45:51.802Z,19.10
2019-01-21T15:49:40.509Z,19.30
2019-01-21T15:52:45.305Z,17.93
2019-01-21T15:55:54.515Z,18.20
2019-01-21T15:59:18.610Z,17.80
2019-01-21T16:02:08.686Z,19.47
2019-01-21T16:05:17.708Z,18.57
2019-01-21T16:08:20.555Z,17.67
2019-01-21T16:11:25.750Z,17.40
2019-01-21T16:14:15.350Z,17.77
2019-01-21T16:17:27.532Z,17.23
2019-01-21T16:20:35.275Z,18.70
2019-01-21T16:23:56.930Z,18.90
2019-01-21T16:26:49.228Z,19.10
2019-01-21T16:29:59.728Z,19.80
2019-01-21T16:33:15.761Z,21.70
2019-01-21T16:36:10.922Z,20.43
2019-01-21T16:39:32.130Z,19.33
2019-01-21T16:42:20.199Z,18.60
2019-01-21T16:44:50.952Z,17.97
2019-01-21T16:47:21.800Z,18.77
2019-01-21T16:49:52.553Z,18.30
2019-01-21T16:52:23.366Z,19.70
2019-01-21T16:54:54.217Z,18.43
2019-01-21T16:57:25.005Z,18.17
2019-01-21T16:59:55.795Z,18.97
2019-01-21T17:02:26.602Z,16.90
2019-01-21T17:04:57.340Z,18.57
2019-01-21T17:07:28.157Z,18.23
2019-01-21T17:09:59.175Z,18.80
2019-01-21T17:12:30.437Z,19.43
2019-01-21T17:15:01.164Z,19.67
2019-01-21T17:17:32.331Z,18.47
2019-01-21T17:20:03.105Z,17.63
2019-01-21T17:22:33.842Z,18.73
2019-01-21T17:25:04.889Z,18.50
2019-01-21T17:27:35.677Z,19.17
2019-01-21T17:30:08.810Z,19.97
2019-01-21T17:32:39.781Z,18.60
2019-01-21T17:35:12.323Z,18.97
2019-01-21T17:37:42.698Z,17.23
2019-01-21T17:40:15.683Z,18.70
2019-01-21T17:42:46.005Z,18.93
2019-01-21T17:45:19.463Z,19.27
2019-01-21T17:47:49.845Z,18.13
2019-01-21T17:50:20.384Z,20.33
2019-01-21T17:52:50.662Z,18.90
2019-01-21T17:55:23.439Z,19.43
2019-01-21T17:57:53.990Z,19.57
2019-01-21T18:00:24.630Z,18.57
2019-01-21T18:02:55.276Z,19.70
2019-01-21T18:05:25.803Z,19.00
2019-01-21T18:07:56.263Z,18.93
2019-01-21T18:10:26.620Z,21.20
2019-01-21T18:12:57.091Z,19.50
2019-01-21T18:15:27.506Z,21.70
2019-01-21T18:17:58.018Z,20.33
2019-01-21T18:20:28.434Z,19.83
2019-01-21T18:22:58.934Z,21.47
2019-01-21T18:25:29.271Z,22.47
2019-01-21T18:27:59.742Z,21.53
2019-01-21T18:30:30.687Z,22.13
2019-01-21T18:33:01.466Z,20.83
2019-01-21T18:35:32.303Z,19.83
2019-01-21T18:38:04.467Z,19.00
2019-01-21T18:40:34.877Z,19.30
2019-01-21T18:43:05.493Z,17.97
2019-01-21T18:45:36.369Z,19.77
2019-01-21T18:48:07.504Z,20.23
2019-01-21T18:50:38.581Z,21.47
2019-01-21T18:53:09.340Z,19.57
2019-01-21T18:55:40.179Z,19.13
2019-01-21T18:58:10.881Z,20.00
2019-01-21T19:00:41.889Z,21.10
2019-01-21T19:03:13.023Z,21.43
2019-01-21T19:05:43.793Z,20.63
2019-01-21T19:08:15.069Z,19.93
2019-01-21T19:10:45.839Z,21.43
2019-01-21T19:13:16.665Z,21.83
2019-01-21T19:15:49.742Z,23.47
2019-01-21T19:18:20.442Z,22.07
2019-01-21T19:20:51.602Z,21.53
2019-01-21T19:23:23.223Z,21.60
2019-01-21T19:25:54.456Z,21.50
2019-01-21T19:28:26.815Z,20.47
2019-01-21T19:30:58.076Z,20.33
2019-01-21T19:33:28.925Z,21.60
2019-01-21T19:36:00.049Z,23.67
2019-01-21T19:38:32.063Z,23.93
2019-01-21T19:41:07.327Z,23.07
2019-01-21T19:43:37.832Z,27.77
2019-01-21T19:46:08.193Z,26.17
2019-01-21T19:48:38.885Z,25.00
2019-01-21T19:51:09.205Z,24.40
2019-01-21T19:53:39.588Z,24.33
2019-01-21T19:56:10.057Z,22.47
2019-01-21T19:58:40.663Z,22.67
2019-01-21T20:01:10.818Z,21.30
2019-01-21T20:03:41.190Z,20.83
2019-01-21T20:06:11.465Z,21.93
2019-01-21T20:08:41.697Z,22.03
2019-01-21T20:11:12.419Z,21.67
2019-01-21T20:13:42.697Z,22.00
2019-01-21T20:16:12.893Z,23.33
2019-01-21T20:18:43.311Z,23.47
2019-01-21T20:21:13.595Z,22.90
2019-01-21T20:23:43.706Z,23.47
2019-01-21T20:26:13.965Z,23.77
2019-01-21T20:28:44.269Z,23.10
2019-01-21T20:31:14.850Z,24.30
2019-01-21T20:33:45.058Z,24.20
2019-01-21T20:36:15.305Z,25.17
2019-01-21T20:38:45.522Z,22.70
2019-01-21T20:41:15.948Z,23.23
2019-01-21T20:43:46.335Z,22.90
2019-01-21T20:46:16.696Z,22.37
2019-01-21T20:48:47.161Z,22.93
2019-01-21T20:51:17.487Z,22.80
2019-01-21T20:53:47.832Z,21.90
2019-01-21T20:56:18.259Z,22.67
2019-01-21T20:58:48.625Z,23.07
2019-01-21T21:01:18.870Z,23.37
2019-01-21T21:03:49.340Z,22.77
2019-01-21T21:06:19.671Z,23.17
2019-01-21T21:08:49.975Z,22.77
2019-01-21T21:11:20.246Z,23.93
2019-01-21T21:13:50.575Z,22.60
2019-01-21T21:16:21.395Z,22.20
2019-01-21T21:18:52.004Z,22.23
2019-01-21T21:21:22.712Z,22.53
2019-01-21T21:23:53.304Z,22.77
2019-01-21T21:26:24.002Z,23.03
2019-01-21T21:28:54.631Z,23.47
2019-01-21T21:31:25.280Z,22.87
2019-01-21T21:33:56.326Z,22.60
2019-01-21T21:36:27.062Z,23.10
2019-01-21T21:38:57.728Z,23.87
2019-01-21T21:41:28.429Z,24.00
2019-01-21T21:43:59.137Z,23.10
2019-01-21T21:46:29.870Z,23.43
2019-01-21T21:49:00.860Z,23.73
2019-01-21T21:51:31.488Z,23.73
2019-01-21T21:54:01.998Z,23.47
2019-01-21T21:56:32.664Z,23.47
2019-01-21T21:59:03.295Z,23.43
2019-01-21T22:01:34.172Z,23.70
2019-01-21T22:04:05.000Z,23.70
2019-01-21T22:06:35.621Z,24.43
2019-01-21T22:09:08.494Z,23.40
2019-01-21T22:11:39.520Z,22.30
2019-01-21T22:14:10.114Z,24.73
2019-01-21T22:16:41.071Z,23.33
2019-01-21T22:19:11.781Z,23.83
2019-01-21T22:21:42.388Z,25.20
2019-01-21T22:24:13.158Z,23.00
2019-01-21T22:26:43.877Z,23.27
2019-01-21T22:29:14.495Z,23.47
2019-01-21T22:31:45.993Z,23.53
2019-01-21T22:34:16.618Z,23.87
2019-01-21T22:36:47.554Z,23.90
2019-01-21T22:39:18.198Z,22.00
2019-01-21T22:41:48.994Z,21.03
2019-01-21T22:44:20.257Z,20.03
2019-01-21T22:46:51.221Z,19.33
2019-01-21T22:49:21.910Z,18.97
2019-01-21T22:51:52.773Z,19.67
2019-01-21T22:54:23.354Z,19.13
2019-01-21T22:56:54.081Z,21.10
2019-01-21T22:59:24.702Z,22.30
2019-01-21T23:01:55.387Z,24.63
2019-01-21T23:04:26.015Z,22.97
2019-01-21T23:06:56.796Z,22.37
2019-01-21T23:09:27.814Z,21.00
2019-01-21T23:11:58.522Z,21.53
2019-01-21T23:14:29.185Z,20.70
2019-01-21T23:17:00.114Z,21.33
2019-01-21T23:19:30.858Z,20.87
2019-01-21T23:22:01.975Z,20.63
2019-01-21T23:24:32.723Z,19.63
2019-01-21T23:27:03.376Z,18.83
2019-01-21T23:29:34.196Z,19.63
2019-01-21T23:32:04.760Z,19.70
2019-01-21T23:34:35.553Z,19.57
2019-01-21T23:37:06.151Z,20.13
2019-01-21T23:39:37.039Z,19.57
2019-01-21T23:42:08.063Z,20.60
2019-01-21T23:44:38.719Z,18.83
2019-01-21T23:47:09.332Z,18.77
2019-01-21T23:49:39.625Z,17.90
2019-01-21T23:52:09.914Z,18.57
2019-01-21T23:54:40.043Z,19.67
2019-01-21T23:57:10.306Z,19.30
2019-01-21T23:59:40.798Z,19.13
